Time;durP1;ratioP1;P1;durP2;ratioP2;P2;SDS_P1;SDS_P2;PMS_P1;PMS_P2;Temp;Humidity;BMP_temperature;BMP_pressure;BME280_temperature;BME280_humidity;BME280_pressure;Samples;Min_cycle;Max_cycle;Signal;HPM_P1;HPM_P2
2022/08/05 00:02:20;;;;;;;5.20;3.60;;;;;;;22.36;50.67;100533.84;106469;1271;22540;-74
2022/08/05 00:04:48;;;;;;;4.70;3.30;;;;;;;22.32;50.77;100536.05;106306;1271;22529;-75
2022/08/05 00:07:22;;;;;;;3.30;3.00;;;;;;;22.30;50.87;100535.64;106347;1271;25348;-72
2022/08/05 00:10:09;;;;;;;5.00;3.20;;;;;;;22.24;51.00;100530.73;107007;1271;25353;-74
2022/08/05 00:12:36;;;;;;;8.10;3.50;;;;;;;22.25;50.97;100531.73;106770;1271;25322;-75
2022/08/05 00:15:23;;;;;;;9.20;3.20;;;;;;;22.24;51.23;100535.39;106372;1271;25421;-75
2022/08/05 00:18:10;;;;;;;5.90;3.30;;;;;;;22.23;51.14;100532.59;106310;1271;22541;-77
2022/08/05 00:20:49;;;;;;;4.50;3.30;;;;;;;22.20;51.32;100538.10;106202;1271;22905;-76
2022/08/05 00:23:17;;;;;;;4.20;3.30;;;;;;;22.19;51.41;100537.10;106469;1271;23714;-76
2022/08/05 00:26:05;;;;;;;5.10;3.40;;;;;;;22.18;51.46;100534.64;106449;1271;23908;-75
2022/08/05 00:28:33;;;;;;;4.50;3.10;;;;;;;22.16;51.62;100534.23;106369;1271;25575;-74
2022/08/05 00:31:01;;;;;;;4.70;3.50;;;;;;;22.16;51.47;100532.45;106424;1268;25263;-75
2022/08/05 00:33:31;;;;;;;3.90;3.10;;;;;;;22.13;51.79;100532.23;106243;1268;23903;-75
2022/08/05 00:36:18;;;;;;;3.80;3.30;;;;;;;22.07;51.93;100530.95;106365;1268;24067;-74
2022/08/05 00:39:06;;;;;;;4.50;3.20;;;;;;;22.04;52.04;100532.19;106327;1268;25306;-74
2022/08/05 00:41:45;;;;;;;7.00;2.90;;;;;;;22.02;51.98;100532.48;106264;1269;22617;-74
2022/08/05 00:44:18;;;;;;;4.50;3.40;;;;;;;21.99;52.31;100534.60;106291;1268;22524;-75
2022/08/05 00:46:49;;;;;;;4.60;3.60;;;;;;;21.99;52.26;100531.77;106307;1268;22550;-79
2022/08/05 00:49:29;;;;;;;6.30;3.90;;;;;;;21.98;52.37;100530.18;106286;1268;22685;-74
2022/08/05 00:51:59;;;;;;;3.40;3.10;;;;;;;21.98;52.53;100530.17;106278;1268;25251;-76
2022/08/05 00:54:25;;;;;;;5.80;3.20;;;;;;;21.99;52.54;100527.98;106405;1268;22685;-73
2022/08/05 00:56:55;;;;;;;4.10;3.80;;;;;;;21.97;52.68;100527.89;106494;1268;22547;-79
2022/08/05 00:59:22;;;;;;;4.40;3.40;;;;;;;21.98;52.73;100523.36;106399;1268;24242;-76
2022/08/05 01:01:49;;;;;;;11.00;3.60;;;;;;;21.96;52.66;100522.77;106228;1271;22762;-78
2022/08/05 01:04:17;;;;;;;4.60;3.60;;;;;;;21.92;52.76;100520.98;106304;1271;22726;-78
2022/08/05 01:06:52;;;;;;;4.00;3.50;;;;;;;21.92;52.84;100517.95;106499;1268;22529;-79
2022/08/05 01:09:21;;;;;;;4.70;3.70;;;;;;;21.90;53.20;100517.16;106520;1268;22532;-74
2022/08/05 01:11:51;;;;;;;5.90;3.90;;;;;;;21.89;53.20;100511.83;106442;1268;26708;-75
2022/08/05 01:14:25;;;;;;;6.30;3.90;;;;;;;21.88;53.33;100512.96;106393;1268;22529;-77
2022/08/05 01:17:05;;;;;;;4.30;3.70;;;;;;;21.84;53.49;100512.11;106362;1268;22640;-76
2022/08/05 01:19:39;;;;;;;7.30;3.50;;;;;;;21.81;53.44;100510.86;106641;1271;22537;-76
2022/08/05 01:22:53;;;;;;;6.40;3.00;;;;;;;21.75;53.69;100510.56;107526;1268;22560;-74
2022/08/05 01:26:01;;;;;;;4.80;3.60;;;;;;;21.72;53.77;100508.96;106547;1268;22521;-74
2022/08/05 01:28:51;;;;;;;6.60;3.90;;;;;;;21.72;54.04;100508.08;106087;1269;24387;-76
2022/08/05 01:31:24;;;;;;;6.80;3.40;;;;;;;21.70;54.04;100506.02;106489;1271;24256;-78
2022/08/05 01:34:09;;;;;;;5.80;3.40;;;;;;;21.67;54.24;100501.90;106441;1268;22517;-75
2022/08/05 01:36:46;;;;;;;5.20;4.30;;;;;;;21.65;54.22;100499.45;106392;1268;23948;-77
2022/08/05 01:39:16;;;;;;;6.60;3.40;;;;;;;21.61;54.38;100496.83;106429;1268;24911;-77
2022/08/05 01:42:08;;;;;;;4.30;3.70;;;;;;;21.60;54.65;100499.73;106378;1268;22623;-73
2022/08/05 01:44:40;;;;;;;7.70;3.80;;;;;;;21.58;54.79;100500.91;106466;1268;22583;-74
2022/08/05 01:47:09;;;;;;;6.80;3.90;;;;;;;21.57;54.94;100501.70;106579;1268;22886;-72
2022/08/05 01:49:40;;;;;;;7.70;4.10;;;;;;;21.55;54.94;100503.05;106316;1268;24682;-73
2022/08/05 01:52:30;;;;;;;4.10;3.70;;;;;;;21.53;55.11;100500.98;106453;1271;24411;-76
2022/08/05 01:55:02;;;;;;;5.40;3.80;;;;;;;21.51;55.22;100498.58;106458;1268;22995;-76
2022/08/05 01:57:32;;;;;;;5.20;4.10;;;;;;;21.49;55.27;100496.02;106975;1268;25493;-75
2022/08/05 02:00:20;;;;;;;5.90;4.60;;;;;;;21.47;55.38;100493.83;107137;1268;22857;-77
2022/08/05 02:03:08;;;;;;;7.20;3.90;;;;;;;21.45;55.41;100492.83;106661;1271;25988;-75
2022/08/05 02:05:55;;;;;;;6.20;4.00;;;;;;;21.43;55.67;100491.50;107245;1268;22472;-75
2022/08/05 02:08:28;;;;;;;4.50;4.10;;;;;;;21.39;55.61;100488.47;106862;1268;22535;-76
2022/08/05 02:11:09;;;;;;;6.40;4.10;;;;;;;21.38;55.82;100485.31;106818;1267;25424;-77
2022/08/05 02:13:45;;;;;;;8.10;4.00;;;;;;;21.36;55.95;100485.61;106386;1268;24223;-76
2022/08/05 02:16:35;;;;;;;6.30;4.40;;;;;;;21.35;55.95;100483.50;106376;1268;24261;-75
2022/08/05 02:19:33;;;;;;;4.70;3.60;;;;;;;21.33;56.09;100480.36;106483;1268;23186;-77
2022/08/05 02:22:08;;;;;;;7.50;3.80;;;;;;;21.25;56.21;100477.92;106461;1268;25348;-80
2022/08/05 02:24:57;;;;;;;7.30;4.00;;;;;;;21.24;56.28;100476.52;106304;1268;25354;-78
2022/08/05 02:27:27;;;;;;;6.40;3.70;;;;;;;21.24;56.46;100470.81;106381;1268;25200;-77
2022/08/05 02:30:16;;;;;;;7.80;3.50;;;;;;;21.23;56.56;100472.83;106350;1268;22588;-74
2022/08/05 02:32:54;;;;;;;4.90;3.70;;;;;;;21.24;56.74;100477.64;106148;1268;22844;-76
2022/08/05 02:35:25;;;;;;;5.90;3.80;;;;;;;21.22;56.77;100474.36;106351;1268;25356;-76
2022/08/05 02:37:57;;;;;;;4.40;3.50;;;;;;;21.21;56.85;100470.62;106341;1268;22541;-76
2022/08/05 02:40:26;;;;;;;6.50;4.60;;;;;;;21.21;56.96;100465.27;106377;1268;25235;-79
2022/08/05 02:42:55;;;;;;;4.90;4.00;;;;;;;21.19;57.07;100465.70;106405;1271;22546;-77
2022/08/05 02:45:25;;;;;;;5.90;3.80;;;;;;;21.19;57.10;100468.05;106482;1268;25238;-79
2022/08/05 02:47:56;;;;;;;5.50;3.90;;;;;;;21.18;57.17;100463.07;106473;1268;22522;-75
2022/08/05 02:50:37;;;;;;;4.50;3.90;;;;;;;21.19;57.23;100461.80;106523;1268;26503;-74
2022/08/05 02:53:11;;;;;;;6.60;4.50;;;;;;;21.16;57.30;100458.54;106497;1268;22818;-75
2022/08/05 02:55:51;;;;;;;6.30;4.10;;;;;;;21.17;57.42;100464.39;106306;1268;25245;-76
2022/08/05 02:58:26;;;;;;;6.70;4.50;;;;;;;21.14;57.52;100458.59;106504;1268;25228;-73
2022/08/05 03:00:57;;;;;;;6.80;4.30;;;;;;;21.12;57.62;100455.14;106186;1271;22681;-76
2022/08/05 03:03:27;;;;;;;8.40;4.20;;;;;;;21.11;57.68;100454.31;106337;1271;25614;-72
2022/08/05 03:06:15;;;;;;;4.90;4.30;;;;;;;21.11;57.87;100452.90;106359;1268;22538;-75
2022/08/05 03:09:03;;;;;;;7.30;4.70;;;;;;;21.09;57.98;100455.84;106326;1267;24008;-74
2022/08/05 03:11:30;;;;;;;4.40;3.90;;;;;;;21.08;58.06;100450.90;106295;1268;22675;-77
2022/08/05 03:14:17;;;;;;;7.50;4.80;;;;;;;21.07;58.19;100451.11;106431;1268;22529;-77
2022/08/05 03:16:46;;;;;;;5.80;4.00;;;;;;;21.06;58.29;100451.36;106376;1268;22543;-74
2022/08/05 03:19:13;;;;;;;6.90;4.20;;;;;;;21.04;58.43;100448.02;106409;1268;24385;-76
2022/08/05 03:22:00;;;;;;;6.90;4.40;;;;;;;21.02;58.55;100449.20;106375;1268;23972;-72
2022/08/05 03:24:28;;;;;;;12.10;4.80;;;;;;;21.01;58.57;100453.40;106572;1268;22638;-72
2022/08/05 03:26:58;;;;;;;6.10;4.10;;;;;;;21.00;58.64;100450.22;106157;1271;22528;-72
2022/08/05 03:29:25;;;;;;;4.90;4.10;;;;;;;20.99;58.75;100450.62;106485;1268;24289;-70
2022/08/05 03:32:14;;;;;;;9.90;4.80;;;;;;;20.99;58.71;100446.86;106484;1268;22729;-75
2022/08/05 03:34:45;;;;;;;6.70;5.00;;;;;;;20.97;58.89;100446.07;106417;1268;25289;-74
2022/08/05 03:37:18;;;;;;;7.80;4.90;;;;;;;20.92;58.85;100441.09;106425;1268;22467;-72
2022/08/05 03:40:11;;;;;;;8.50;5.70;;;;;;;20.90;59.08;100444.23;106261;1269;23947;-76
2022/08/05 03:42:41;;;;;;;8.20;5.20;;;;;;;20.89;59.21;100441.60;106414;1268;25215;-75
2022/08/05 03:45:19;;;;;;;5.10;4.60;;;;;;;20.91;59.32;100447.08;106574;1268;22536;-76
2022/08/05 03:47:50;;;;;;;5.20;4.70;;;;;;;20.94;59.34;100446.27;106503;1268;22614;-74
2022/08/05 03:50:17;;;;;;;8.30;4.40;;;;;;;20.94;59.28;100445.17;106515;1268;25464;-79
2022/08/05 03:52:54;;;;;;;5.60;4.60;;;;;;;20.94;59.41;100446.42;106422;1268;22548;-75
2022/08/05 03:55:52;;;;;;;7.60;5.30;;;;;;;20.94;59.46;100446.21;106362;1268;23920;-76
2022/08/05 03:58:41;;;;;;;6.30;4.90;;;;;;;20.96;59.54;100445.95;106360;1271;22535;-74
2022/08/05 04:01:12;;;;;;;7.00;6.20;;;;;;;20.98;59.48;100442.64;106372;1267;25219;-72
2022/08/05 04:03:43;;;;;;;6.10;5.50;;;;;;;20.99;59.59;100448.48;106414;1271;22565;-74
2022/08/05 04:06:33;;;;;;;7.60;6.50;;;;;;;20.99;59.69;100440.41;106432;1268;25287;-74
2022/08/05 04:09:04;;;;;;;6.60;5.70;;;;;;;21.00;59.67;100445.54;106430;1268;22534;-75
2022/08/05 04:11:35;;;;;;;6.60;4.80;;;;;;;21.02;59.67;100441.86;106534;1268;24208;-73
2022/08/05 04:14:18;;;;;;;5.10;4.60;;;;;;;21.03;59.75;100442.69;106489;1268;22515;-75
2022/08/05 04:16:58;;;;;;;5.80;5.00;;;;;;;21.05;59.75;100439.95;106424;1268;25221;-76
2022/08/05 04:19:27;;;;;;;6.80;5.50;;;;;;;21.04;59.83;100446.26;106388;1271;24260;-74
2022/08/05 04:21:55;;;;;;;8.40;5.20;;;;;;;21.05;59.78;100450.14;106496;1269;23948;-76
2022/08/05 04:24:42;;;;;;;7.50;5.00;;;;;;;21.06;59.92;100450.08;106536;1271;24277;-77
2022/08/05 04:27:19;;;;;;;7.70;5.30;;;;;;;21.08;59.88;100446.39;106408;1271;22534;-82
2022/08/05 04:30:07;;;;;;;8.10;5.20;;;;;;;21.11;59.97;100439.27;106099;1271;22582;-78
2022/08/05 04:32:34;;;;;;;6.40;5.30;;;;;;;21.15;59.87;100439.61;106313;1268;22525;-79
2022/08/05 04:35:03;;;;;;;7.10;5.70;;;;;;;21.19;59.88;100441.91;106205;1272;22528;-78
2022/08/05 04:37:31;;;;;;;6.40;5.40;;;;;;;21.21;59.88;100439.45;106541;1268;22566;-78
2022/08/05 04:40:18;;;;;;;6.10;5.50;;;;;;;21.22;59.98;100442.25;106201;1271;24430;-78
2022/08/05 04:42:45;;;;;;;5.90;5.30;;;;;;;21.25;59.96;100442.46;106341;1268;24309;-78
2022/08/05 04:45:13;;;;;;;8.60;5.60;;;;;;;21.27;59.96;100441.63;106342;1268;22522;-78
2022/08/05 04:48:12;;;;;;;6.50;5.40;;;;;;;21.32;60.08;100438.52;106342;1268;22573;-80
2022/08/05 04:50:53;;;;;;;6.40;5.60;;;;;;;21.36;60.01;100439.03;106447;1268;25420;-78
2022/08/05 04:53:29;;;;;;;5.60;5.10;;;;;;;21.38;60.09;100439.64;106588;1268;25006;-80
2022/08/05 04:56:01;;;;;;;7.90;5.90;;;;;;;21.41;59.91;100439.67;106499;1269;22519;-81
2022/08/05 04:58:48;;;;;;;6.90;5.80;;;;;;;21.44;60.01;100439.52;106372;1269;22538;-78
2022/08/05 05:01:15;;;;;;;7.40;5.30;;;;;;;21.48;59.99;100438.76;106682;1268;22460;-73
2022/08/05 05:04:02;;;;;;;7.90;5.70;;;;;;;21.51;60.09;100438.73;106485;1271;22726;-75
2022/08/05 05:06:30;;;;;;;7.90;5.60;;;;;;;21.53;60.06;100443.68;106517;1268;25234;-76
2022/08/05 05:09:11;;;;;;;6.20;5.60;;;;;;;21.54;60.01;100443.95;106435;1268;22535;-75
2022/08/05 05:11:43;;;;;;;7.00;5.90;;;;;;;21.56;59.99;100444.96;106379;1271;22544;-77
2022/08/05 05:14:23;;;;;;;8.80;7.00;;;;;;;21.60;60.12;100453.35;106506;1268;22606;-76
2022/08/05 05:16:59;;;;;;;10.70;7.00;;;;;;;21.65;60.09;100452.00;106564;1268;23926;-74
2022/08/05 05:19:26;;;;;;;9.10;6.50;;;;;;;21.68;59.96;100453.27;106468;1268;25225;-76
2022/08/05 05:22:11;;;;;;;7.60;5.90;;;;;;;21.70;59.83;100450.81;106405;1268;26073;-77
2022/08/05 05:24:53;;;;;;;10.20;6.90;;;;;;;21.77;59.73;100453.88;106347;1268;26565;-79
2022/08/05 05:27:27;;;;;;;11.50;6.70;;;;;;;21.81;59.72;100461.77;106536;1268;22542;-76
2022/08/05 05:30:16;;;;;;;7.50;6.70;;;;;;;21.82;59.68;100464.55;106405;1271;22616;-73
2022/08/05 05:33:00;;;;;;;6.90;6.20;;;;;;;21.86;59.76;100469.35;106599;1268;24682;-75
2022/08/05 05:35:46;;;;;;;7.50;6.70;;;;;;;21.91;59.72;100467.63;106005;1277;22554;-72
2022/08/05 05:38:15;;;;;;;6.90;6.30;;;;;;;21.95;59.50;100468.48;106467;1275;1198396;-72
2022/08/05 05:40:55;;;;;;;7.30;6.50;;;;;;;21.99;59.42;100468.07;105979;1276;22554;-75
2022/08/05 05:43:23;;;;;;;9.30;6.60;;;;;;;22.03;59.37;100467.89;106067;1276;23368;-78
2022/08/05 05:46:09;;;;;;;7.60;6.90;;;;;;;22.06;59.26;100470.21;105712;1276;22702;-77
2022/08/05 05:48:44;;;;;;;8.10;6.90;;;;;;;22.10;59.08;100470.34;105544;1277;22533;-75
2022/08/05 05:51:21;;;;;;;7.80;6.30;;;;;;;22.14;58.95;100473.72;105959;1274;22746;-76
2022/08/05 05:53:50;;;;;;;7.70;6.90;;;;;;;22.18;58.95;100474.00;106110;1268;25225;-76
2022/08/05 05:56:26;;;;;;;8.90;6.20;;;;;;;22.22;58.87;100471.30;106288;1269;24240;-77
2022/08/05 05:59:05;;;;;;;11.40;6.80;;;;;;;22.23;58.89;100459.55;106314;1268;22539;-76
2022/08/05 06:01:38;;;;;;;9.60;6.50;;;;;;;22.31;58.99;100461.98;106289;1271;24263;-76
2022/08/05 06:04:07;;;;;;;6.50;5.90;;;;;;;22.36;58.84;100462.28;106375;1268;25358;-75
2022/08/05 06:06:41;;;;;;;8.60;6.00;;;;;;;22.41;58.86;100463.60;106367;1271;25229;-75
2022/08/05 06:09:13;;;;;;;5.80;5.00;;;;;;;22.46;58.71;100461.35;106427;1268;25222;-76
2022/08/05 06:11:52;;;;;;;6.00;5.40;;;;;;;22.50;58.68;100462.67;106324;1268;23900;-74
2022/08/05 06:14:29;;;;;;;6.20;5.10;;;;;;;22.56;58.50;100458.27;106274;1271;23411;-76
2022/08/05 06:16:57;;;;;;;5.70;5.20;;;;;;;22.61;58.48;100457.96;106488;1269;22571;-73
2022/08/05 06:19:25;;;;;;;7.10;4.80;;;;;;;22.67;58.48;100457.46;106445;1268;22616;-86
2022/08/05 06:22:05;;;;;;;6.70;5.10;;;;;;;22.70;58.42;100452.77;105909;1274;25240;-78
2022/08/05 06:24:33;;;;;;;6.30;5.30;;;;;;;22.78;58.42;100459.70;106129;1274;25363;-73
2022/08/05 06:27:01;;;;;;;5.20;4.60;;;;;;;22.82;58.06;100455.65;106143;1274;22546;-74
2022/08/05 06:29:30;;;;;;;7.80;5.00;;;;;;;22.87;57.97;100455.04;105826;1279;22595;-74
2022/08/05 06:32:17;;;;;;;6.20;4.30;;;;;;;22.93;57.84;100457.55;105634;1280;24345;-79
2022/08/05 06:34:57;;;;;;;8.70;5.30;;;;;;;22.98;57.99;100455.24;105614;1279;25361;-72
2022/08/05 06:37:27;;;;;;;5.90;4.70;;;;;;;23.02;57.75;100452.87;105521;1280;22609;-75
2022/08/05 06:40:14;;;;;;;9.20;5.30;;;;;;;23.07;57.57;100451.68;105537;1273;23913;-73
2022/08/05 06:42:48;;;;;;;6.60;4.50;;;;;;;23.11;57.43;100449.64;106021;1274;25477;-77
2022/08/05 06:45:21;;;;;;;6.90;4.50;;;;;;;23.16;57.56;100449.35;105430;1281;24886;-74
2022/08/05 06:48:08;;;;;;;6.70;4.20;;;;;;;23.22;57.38;100452.04;105671;1277;25477;-74
2022/08/05 06:50:56;;;;;;;5.60;4.50;;;;;;;23.27;57.21;100446.88;106032;1277;24124;-74
2022/08/05 06:53:22;;;;;;;6.30;4.10;;;;;;;23.32;57.47;100444.40;105964;1277;26653;-74
2022/08/05 06:55:59;;;;;;;4.90;4.00;;;;;;;23.38;57.44;100444.79;106281;1275;25248;-74
2022/08/05 06:58:27;;;;;;;6.70;4.30;;;;;;;23.44;57.43;100442.27;106381;1277;24258;-82
2022/08/05 07:01:05;;;;;;;4.60;4.10;;;;;;;23.51;57.23;100441.13;105886;1275;25404;-78
2022/08/05 07:03:33;;;;;;;9.60;4.00;;;;;;;23.57;57.02;100437.50;106373;1268;22548;-77
2022/08/05 07:06:03;;;;;;;4.60;4.20;;;;;;;23.62;56.71;100439.53;106266;1268;22820;-76
2022/08/05 07:08:42;;;;;;;5.10;4.20;;;;;;;23.68;56.58;100440.23;106274;1272;25223;-74
2022/08/05 07:11:14;;;;;;;4.00;3.70;;;;;;;23.74;56.71;100438.98;106197;1271;25818;-75
2022/08/05 07:16:48;;;;;;;3.80;3.50;;;;;;;23.88;56.53;100436.80;106255;1274;27027;-75
2022/08/05 07:19:35;;;;;;;6.40;3.70;;;;;;;23.96;56.48;100436.98;106167;1274;22954;-78
2022/08/05 07:22:22;;;;;;;3.70;3.40;;;;;;;24.04;56.15;100437.24;105954;1274;25242;-77
2022/08/05 07:25:05;;;;;;;4.90;4.00;;;;;;;24.11;55.93;100434.44;106221;1274;22708;-73
2022/08/05 07:27:52;;;;;;;;;;;;;;;24.17;55.79;100436.60;106117;1274;23901;-74
2022/08/05 07:30:31;;;;;;;;;;;;;;;24.22;55.70;100434.85;106069;1274;24205;-77
2022/08/05 07:33:05;;;;;;;5.70;3.50;;;;;;;24.28;55.37;100431.08;106006;1274;25450;-77
2022/08/05 07:35:39;;;;;;;7.50;3.90;;;;;;;24.34;55.33;100434.40;106191;1268;25228;-77
2022/08/05 07:38:27;;;;;;;4.90;3.60;;;;;;;24.42;55.53;100430.67;106245;1271;22535;-79
2022/08/05 07:41:05;;;;;;;5.60;3.40;;;;;;;24.49;55.43;100430.16;106448;1271;24346;-78
2022/08/05 07:43:54;;;;;;;3.90;3.50;;;;;;;24.58;54.80;100430.67;106624;1268;22646;-76
2022/08/05 07:46:23;;;;;;;4.20;3.40;;;;;;;24.63;54.53;100427.45;106527;1268;22547;-76
2022/08/05 07:48:54;;;;;;;5.60;3.40;;;;;;;24.68;54.61;100427.10;106487;1269;22551;-76
2022/08/05 07:51:32;;;;;;;9.40;3.40;;;;;;;24.75;54.46;100431.70;106389;1271;22524;-77
2022/08/05 07:54:07;;;;;;;3.80;3.30;;;;;;;24.83;54.38;100429.50;106483;1268;25377;-77
2022/08/05 07:56:37;;;;;;;4.50;3.20;;;;;;;24.92;54.08;100426.77;106903;1268;22897;-77
2022/08/05 07:59:24;;;;;;;5.30;3.10;;;;;;;25.02;53.87;100428.85;106587;1268;25228;-75
2022/08/05 08:02:10;;;;;;;3.10;2.80;;;;;;;25.11;53.42;100422.62;107718;1268;25365;-77
2022/08/05 08:04:47;;;;;;;3.60;3.00;;;;;;;25.21;53.24;100421.21;108153;1268;24293;-76
2022/08/05 08:07:16;;;;;;;4.90;2.60;;;;;;;25.33;53.05;100422.16;108738;1268;22591;-76
2022/08/05 08:09:50;;;;;;;4.70;3.00;;;;;;;25.46;53.35;100425.02;108559;1268;23797;-75
2022/08/05 08:12:20;;;;;;;3.20;2.90;;;;;;;25.59;53.15;100422.28;107770;1268;25267;-75
2022/08/05 08:15:08;;;;;;;4.00;2.90;;;;;;;25.74;52.93;100428.08;108226;1274;22543;-75
2022/08/05 08:17:44;;;;;;;6.40;3.10;;;;;;;25.88;52.59;100427.48;108337;1274;23188;-76
2022/08/05 08:20:16;;;;;;;4.30;3.30;;;;;;;26.02;52.44;100422.67;108680;1276;22873;-77
2022/08/05 08:23:03;;;;;;;3.70;3.30;;;;;;;26.16;51.94;100419.45;108525;1274;22499;-75
2022/08/05 08:25:31;;;;;;;4.50;3.40;;;;;;;26.29;51.69;100415.95;106756;1282;22566;-76
2022/08/05 08:28:18;;;;;;;4.40;3.10;;;;;;;26.42;51.26;100414.71;106494;1280;22522;-75
2022/08/05 08:31:05;;;;;;;3.20;2.90;;;;;;;26.56;51.11;100411.27;106641;1279;22709;-76
2022/08/05 08:33:32;;;;;;;3.10;2.90;;;;;;;26.69;50.90;100410.83;105826;1282;22616;-76
2022/08/05 08:36:05;;;;;;;2.80;2.50;;;;;;;26.82;50.59;100413.45;105520;1283;24810;-76
2022/08/05 08:38:54;;;;;;;2.70;2.40;;;;;;;26.92;49.90;100412.45;105748;1281;23274;-77
2022/08/05 08:41:25;;;;;;;5.30;3.20;;;;;;;27.03;49.61;100414.25;105565;1282;22660;-77
2022/08/05 08:44:14;;;;;;;3.90;3.10;;;;;;;27.13;49.32;100414.00;105730;1275;22620;-77
2022/08/05 08:47:06;;;;;;;2.90;2.70;;;;;;;27.23;48.77;100416.27;106183;1274;25251;-77
2022/08/05 08:49:56;;;;;;;4.40;2.60;;;;;;;27.32;48.78;100414.70;106000;1276;25430;-76
2022/08/05 08:52:49;;;;;;;4.80;2.90;;;;;;;27.43;48.67;100411.64;106527;1272;23305;-76
2022/08/05 08:55:20;;;;;;;3.10;2.00;;;;;;;27.52;48.03;100407.48;106549;1271;25222;-78
2022/08/05 08:58:08;;;;;;;3.40;2.50;;;;;;;27.61;47.58;100408.94;106339;1271;24371;-78
2022/08/05 09:00:39;;;;;;;3.50;2.80;;;;;;;27.69;47.69;100405.05;106555;1268;25410;-77
2022/08/05 09:03:10;;;;;;;3.00;2.70;;;;;;;27.78;47.59;100408.81;106048;1277;24422;-77
2022/08/05 09:05:37;;;;;;;3.40;2.70;;;;;;;27.87;47.43;100399.30;105852;1274;25390;-88
2022/08/05 09:08:24;;;;;;;2.90;2.60;;;;;;;27.97;47.14;100397.01;105984;1274;25405;-77
2022/08/05 09:10:53;;;;;;;3.40;2.50;;;;;;;28.07;46.81;100392.41;105885;1274;25350;-75
2022/08/05 09:13:20;;;;;;;4.00;2.70;;;;;;;28.17;46.75;100397.02;106331;1275;22554;-75
2022/08/05 09:15:50;;;;;;;6.00;2.60;;;;;;;28.26;46.30;100393.55;105943;1274;25373;-75
2022/08/05 09:18:17;;;;;;;5.60;2.80;;;;;;;28.33;46.19;100392.84;105885;1274;25232;-74
2022/08/05 09:20:45;;;;;;;4.40;2.40;;;;;;;28.43;46.28;100394.91;106013;1273;25225;-75
2022/08/05 09:23:19;;;;;;;3.30;2.30;;;;;;;28.54;45.11;100394.48;106687;1268;25997;-74
2022/08/05 09:25:50;;;;;;;3.00;2.50;;;;;;;28.61;44.96;100390.45;105983;1277;23656;-76
2022/08/05 09:28:31;;;;;;;2.70;2.30;;;;;;;28.76;45.06;100387.39;105903;1278;22522;-73
2022/08/05 09:31:08;;;;;;;3.30;2.40;;;;;;;28.85;44.67;100384.39;105974;1277;24248;-79
2022/08/05 09:34:00;;;;;;;5.50;2.40;;;;;;;29.01;44.47;100384.32;105853;1280;24771;-77
2022/08/05 09:36:39;;;;;;;3.70;2.30;;;;;;;29.11;43.52;100379.86;105990;1276;22668;-76
2022/08/05 09:39:23;;;;;;;4.70;2.40;;;;;;;29.21;43.77;100376.08;105926;1277;24260;-77
2022/08/05 09:42:10;;;;;;;3.30;2.50;;;;;;;29.33;43.82;100376.30;105749;1278;24093;-73
2022/08/05 09:44:52;;;;;;;9.70;2.80;;;;;;;29.49;43.84;100372.15;106149;1271;22563;-78
2022/08/05 09:47:25;;;;;;;3.90;2.60;;;;;;;29.56;43.19;100378.80;106328;1268;25231;-78
2022/08/05 09:50:12;;;;;;;5.70;2.70;;;;;;;29.58;42.57;100371.94;106498;1268;22572;-80
2022/08/05 09:52:59;;;;;;;4.00;2.50;;;;;;;29.66;43.01;100372.50;106499;1268;22696;-78
2022/08/05 09:55:26;;;;;;;8.30;3.20;;;;;;;29.79;42.90;100374.24;106460;1269;22531;-81
2022/08/05 09:58:14;;;;;;;30.00;5.30;;;;;;;29.91;42.93;100366.06;106390;1271;23894;-80
2022/08/05 10:01:01;;;;;;;17.50;3.70;;;;;;;30.08;42.70;100364.01;106479;1271;22545;-90
2022/08/05 10:03:58;;;;;;;3.60;2.30;;;;;;;30.22;42.28;100363.98;106435;1268;24230;-75
2022/08/05 10:06:27;;;;;;;9.30;2.80;;;;;;;30.32;41.90;100356.33;106329;1271;22696;-80
2022/08/05 10:08:55;;;;;;;3.30;2.20;;;;;;;30.43;41.77;100357.75;106345;1271;22567;-77
2022/08/05 10:11:23;;;;;;;4.30;2.10;;;;;;;30.48;41.20;100353.98;106152;1274;22542;-78
2022/08/05 10:14:26;;;;;;;3.90;2.50;;;;;;;30.51;41.32;100352.60;106221;1277;24224;-79
2022/08/05 10:17:14;;;;;;;3.50;2.50;;;;;;;30.60;41.46;100347.52;105934;1277;26625;-77
2022/08/05 10:20:02;;;;;;;4.30;2.60;;;;;;;30.79;41.36;100344.30;106004;1274;22712;-79
2022/08/05 10:22:40;;;;;;;3.50;2.50;;;;;;;30.92;40.38;100337.11;106023;1274;22934;-76
2022/08/05 10:25:17;;;;;;;3.30;2.60;;;;;;;30.98;40.34;100330.00;105319;1284;22679;-76
2022/08/05 10:27:46;;;;;;;4.80;2.30;;;;;;;31.13;40.08;100323.44;105038;1286;25371;-79
2022/08/05 10:30:35;;;;;;;2.30;2.10;;;;;;;31.35;40.07;100327.30;105544;1281;22794;-79
2022/08/05 10:33:24;;;;;;;5.40;2.30;;;;;;;31.53;39.42;100323.40;105470;1281;22565;-77
2022/08/05 10:35:56;;;;;;;2.70;2.10;;;;;;;31.63;39.04;100322.85;105666;1281;22569;-76
2022/08/05 10:38:28;;;;;;;2.70;2.30;;;;;;;31.69;38.98;100328.38;105570;1281;22532;-76
2022/08/05 10:41:08;;;;;;;3.00;2.40;;;;;;;31.72;38.33;100324.48;105457;1281;24605;-76
2022/08/05 10:43:50;;;;;;;2.40;2.20;;;;;;;31.71;38.05;100321.33;105811;1275;25232;-75
2022/08/05 10:46:20;;;;;;;4.30;2.10;;;;;;;31.70;38.29;100318.31;106204;1274;22547;-78
2022/08/05 10:48:58;;;;;;;3.70;2.30;;;;;;;31.82;38.55;100314.84;105960;1274;24999;-77
2022/08/05 10:51:51;;;;;;;3.60;2.40;;;;;;;32.05;38.36;100313.52;105957;1275;25363;-76
2022/08/05 10:55:10;;;;;;;2.50;2.10;;;;;;;32.19;37.82;100313.52;105620;1281;25413;-74
2022/08/05 10:57:42;;;;;;;2.50;1.90;;;;;;;32.07;37.01;100308.27;105173;1284;25121;-77
2022/08/05 11:00:15;;;;;;;4.50;2.40;;;;;;;32.11;37.46;100306.42;105029;1284;25473;-77
2022/08/05 11:03:04;;;;;;;2.60;2.20;;;;;;;32.28;37.37;100304.08;105077;1286;23940;-80
2022/08/05 11:06:11;;;;;;;4.40;2.10;;;;;;;32.49;37.11;100303.07;105265;1284;23294;-77
2022/08/05 11:09:18;;;;;;;3.70;2.30;;;;;;;32.53;36.16;100302.49;105517;1281;22564;-76
2022/08/05 11:12:25;;;;;;;3.10;2.10;;;;;;;32.48;36.07;100294.11;105654;1275;22547;-74
2022/08/05 11:15:14;;;;;;;4.80;2.30;;;;;;;32.60;36.09;100295.05;106054;1274;24383;-75
2022/08/05 11:18:04;;;;;;;2.40;2.20;;;;;;;32.68;36.03;100288.89;105965;1274;22818;-78
2022/08/05 11:20:37;;;;;;;3.20;2.10;;;;;;;32.78;35.99;100288.10;106007;1274;22709;-79
2022/08/05 11:23:32;;;;;;;3.40;2.30;;;;;;;32.97;36.00;100294.09;105492;1281;22556;-78
2022/08/05 11:26:24;;;;;;;3.50;2.10;;;;;;;33.03;35.03;100289.49;105517;1281;22566;-77
2022/08/05 11:29:03;;;;;;;3.30;2.30;;;;;;;33.14;35.08;100287.83;106726;1277;23918;-75
2022/08/05 11:31:43;;;;;;;4.20;2.30;;;;;;;33.16;34.67;100288.48;107175;1277;22537;-74
2022/08/05 11:34:37;;;;;;;2.20;2.00;;;;;;;33.16;34.89;100292.17;107106;1277;22542;-74
2022/08/05 11:37:04;;;;;;;4.00;2.40;;;;;;;33.21;35.02;100288.91;106079;1275;22519;-79
2022/08/05 11:39:51;;;;;;;4.20;2.40;;;;;;;33.28;35.21;100284.83;105959;1274;23379;-76
2022/08/05 11:42:26;;;;;;;4.50;2.60;;;;;;;33.45;35.09;100285.55;106327;1271;24313;-76
2022/08/05 11:45:02;;;;;;;3.20;2.10;;;;;;;33.60;34.38;100278.88;106371;1271;26461;-76
2022/08/05 11:47:34;;;;;;;10.80;2.80;;;;;;;33.66;34.44;100282.27;106239;1271;22551;-77
2022/08/05 11:50:16;;;;;;;6.90;2.20;;;;;;;33.83;34.60;100283.92;107528;1271;23992;-79
2022/08/05 11:52:44;;;;;;;2.20;1.90;;;;;;;33.97;34.13;100281.59;106475;1271;22554;-76
2022/08/05 11:55:16;;;;;;;5.70;1.90;;;;;;;34.04;33.72;100278.82;106746;1271;24158;-78
2022/08/05 11:57:46;;;;;;;4.40;2.40;;;;;;;34.09;33.53;100274.52;106394;1269;24957;-79
2022/08/05 12:00:33;;;;;;;2.70;2.30;;;;;;;34.15;33.60;100277.77;106420;1268;26558;-77
2022/08/05 12:03:15;;;;;;;3.40;2.40;;;;;;;34.31;33.73;100277.32;106550;1268;25411;-78
2022/08/05 12:06:01;;;;;;;2.30;2.00;;;;;;;34.40;33.16;100275.59;106354;1271;22696;-77
2022/08/05 12:08:29;;;;;;;2.50;2.20;;;;;;;34.44;32.74;100272.61;106537;1268;25324;-77
2022/08/05 12:10:59;;;;;;;2.20;2.10;;;;;;;34.55;32.71;100270.75;106290;1269;25354;-77